sensor_id;sensor_type;location;lat;lon;timestamp;P1;durP1;ratioP1;P2;durP2;ratioP2
38557;SDS011;24333;42.626;23.308;2023-04-29T00:53:38;9.43;;;2.33;;
38557;SDS011;24333;42.626;23.308;2023-04-29T00:56:05;3.47;;;2.13;;
38557;SDS011;24333;42.626;23.308;2023-04-29T00:58:32;4.65;;;2.38;;
38557;SDS011;24333;42.626;23.308;2023-04-29T01:00:59;6.22;;;2.63;;
38557;SDS011;24333;42.626;23.308;2023-04-29T11:47:44;3.03;;;1.20;;
38557;SDS011;24333;42.626;23.308;2023-04-29T11:50:10;4.95;;;1.98;;
38557;SDS011;24333;42.626;23.308;2023-04-29T11:52:56;5.43;;;2.47;;
38557;SDS011;24333;42.626;23.308;2023-04-29T11:55:23;8.02;;;1.98;;
38557;SDS011;24333;42.626;23.308;2023-04-29T11:57:49;4.38;;;1.75;;
38557;SDS011;24333;42.626;23.308;2023-04-29T12:03:15;7.43;;;2.25;;
38557;SDS011;24333;42.626;23.308;2023-04-29T12:05:50;5.50;;;2.30;;
38557;SDS011;24333;42.626;23.308;2023-04-29T12:08:24;7.65;;;3.92;;
38557;SDS011;24333;42.626;23.308;2023-04-29T12:11:03;9.95;;;3.85;;
38557;SDS011;24333;42.626;23.308;2023-04-29T12:39:48;12.13;;;1.65;;
38557;SDS011;24333;42.626;23.308;2023-04-29T12:42:14;5.60;;;1.60;;
38557;SDS011;24333;42.626;23.308;2023-04-29T13:22:45;2.95;;;1.10;;
38557;SDS011;24333;42.626;23.308;2023-04-29T13:25:10;2.28;;;1.38;;
38557;SDS011;24333;42.626;23.308;2023-04-29T13:27:37;8.88;;;1.67;;
38557;SDS011;24333;42.626;23.308;2023-04-29T13:30:12;3.33;;;1.85;;
38557;SDS011;24333;42.626;23.308;2023-04-29T13:35:43;3.38;;;1.63;;
38557;SDS011;24333;42.626;23.308;2023-04-29T13:38:15;4.40;;;2.38;;
38557;SDS011;24333;42.626;23.308;2023-04-29T13:40:42;2.97;;;1.95;;
38557;SDS011;24333;42.626;23.308;2023-04-29T13:43:08;24.85;;;4.13;;
38557;SDS011;24333;42.626;23.308;2023-04-29T13:45:34;15.90;;;2.80;;
38557;SDS011;24333;42.626;23.308;2023-04-29T13:48:00;4.00;;;1.90;;
38557;SDS011;24333;42.626;23.308;2023-04-29T13:50:26;4.00;;;1.80;;
38557;SDS011;24333;42.626;23.308;2023-04-29T13:52:53;4.50;;;1.88;;
38557;SDS011;24333;42.626;23.308;2023-04-29T13:55:20;2.45;;;1.40;;
38557;SDS011;24333;42.626;23.308;2023-04-29T13:57:46;3.35;;;1.55;;
38557;SDS011;24333;42.626;23.308;2023-04-29T14:00:30;4.28;;;1.50;;
38557;SDS011;24333;42.626;23.308;2023-04-29T14:02:55;4.05;;;1.58;;
38557;SDS011;24333;42.626;23.308;2023-04-29T14:05:21;3.17;;;1.42;;
38557;SDS011;24333;42.626;23.308;2023-04-29T14:07:46;2.95;;;1.30;;
38557;SDS011;24333;42.626;23.308;2023-04-29T14:13:08;5.57;;;1.85;;
38557;SDS011;24333;42.626;23.308;2023-04-29T14:15:46;5.45;;;1.88;;
38557;SDS011;24333;42.626;23.308;2023-04-29T14:18:12;2.80;;;1.65;;
38557;SDS011;24333;42.626;23.308;2023-04-29T14:20:37;2.10;;;1.30;;
38557;SDS011;24333;42.626;23.308;2023-04-29T14:23:05;6.72;;;1.77;;
38557;SDS011;24333;42.626;23.308;2023-04-29T14:25:30;8.23;;;1.75;;
38557;SDS011;24333;42.626;23.308;2023-04-29T14:27:55;2.85;;;1.40;;
38557;SDS011;24333;42.626;23.308;2023-04-29T14:30:21;7.40;;;1.70;;
38557;SDS011;24333;42.626;23.308;2023-04-29T14:32:47;5.18;;;2.20;;
38557;SDS011;24333;42.626;23.308;2023-04-29T14:35:12;6.22;;;2.65;;
38557;SDS011;24333;42.626;23.308;2023-04-29T14:37:37;5.15;;;2.83;;
38557;SDS011;24333;42.626;23.308;2023-04-29T14:40:03;3.40;;;2.33;;
38557;SDS011;24333;42.626;23.308;2023-04-29T14:42:30;8.40;;;2.60;;
38557;SDS011;24333;42.626;23.308;2023-04-29T14:45:01;3.65;;;1.98;;
38557;SDS011;24333;42.626;23.308;2023-04-29T14:47:27;5.32;;;2.13;;
38557;SDS011;24333;42.626;23.308;2023-04-29T14:49:53;9.05;;;3.47;;
38557;SDS011;24333;42.626;23.308;2023-04-29T14:52:18;9.60;;;3.58;;
38557;SDS011;24333;42.626;23.308;2023-04-29T14:57:34;5.75;;;3.08;;
38557;SDS011;24333;42.626;23.308;2023-04-29T15:00:06;7.32;;;2.13;;
38557;SDS011;24333;42.626;23.308;2023-04-29T15:02:32;6.18;;;2.47;;
38557;SDS011;24333;42.626;23.308;2023-04-29T15:04:58;8.98;;;2.22;;
38557;SDS011;24333;42.626;23.308;2023-04-29T15:07:23;5.15;;;2.22;;
38557;SDS011;24333;42.626;23.308;2023-04-29T15:09:48;8.77;;;2.13;;
38557;SDS011;24333;42.626;23.308;2023-04-29T15:12:14;6.15;;;2.22;;
38557;SDS011;24333;42.626;23.308;2023-04-29T15:14:42;3.78;;;2.10;;
38557;SDS011;24333;42.626;23.308;2023-04-29T15:17:07;3.83;;;1.90;;
38557;SDS011;24333;42.626;23.308;2023-04-29T15:19:32;6.20;;;2.00;;
38557;SDS011;24333;42.626;23.308;2023-04-29T15:21:59;4.97;;;2.20;;
38557;SDS011;24333;42.626;23.308;2023-04-29T15:24:24;4.13;;;2.03;;
38557;SDS011;24333;42.626;23.308;2023-04-29T15:26:51;3.40;;;1.92;;
38557;SDS011;24333;42.626;23.308;2023-04-29T15:29:22;6.80;;;2.00;;
38557;SDS011;24333;42.626;23.308;2023-04-29T15:31:51;6.50;;;1.85;;
38557;SDS011;24333;42.626;23.308;2023-04-29T15:34:16;4.00;;;1.73;;
38557;SDS011;24333;42.626;23.308;2023-04-29T15:36:41;3.97;;;2.25;;
38557;SDS011;24333;42.626;23.308;2023-04-29T15:45:44;6.65;;;2.25;;
38557;SDS011;24333;42.626;23.308;2023-04-29T15:48:13;4.97;;;2.17;;
38557;SDS011;24333;42.626;23.308;2023-04-29T15:50:38;5.28;;;2.92;;
38557;SDS011;24333;42.626;23.308;2023-04-29T15:53:03;3.97;;;2.20;;
38557;SDS011;24333;42.626;23.308;2023-04-29T15:55:29;5.07;;;2.83;;
38557;SDS011;24333;42.626;23.308;2023-04-29T15:57:55;5.45;;;2.35;;
38557;SDS011;24333;42.626;23.308;2023-04-29T16:00:26;9.52;;;2.78;;
38557;SDS011;24333;42.626;23.308;2023-04-29T16:02:56;6.03;;;2.78;;
38557;SDS011;24333;42.626;23.308;2023-04-29T16:05:22;8.20;;;2.70;;
38557;SDS011;24333;42.626;23.308;2023-04-29T16:07:47;6.63;;;2.83;;
38557;SDS011;24333;42.626;23.308;2023-04-29T16:10:31;4.97;;;2.85;;
38557;SDS011;24333;42.626;23.308;2023-04-29T16:13:11;5.65;;;2.80;;
38557;SDS011;24333;42.626;23.308;2023-04-29T16:15:57;4.85;;;2.72;;
38557;SDS011;24333;42.626;23.308;2023-04-29T16:18:23;6.78;;;3.10;;
38557;SDS011;24333;42.626;23.308;2023-04-29T16:20:50;7.25;;;2.90;;
38557;SDS011;24333;42.626;23.308;2023-04-29T16:23:16;11.18;;;3.25;;
38557;SDS011;24333;42.626;23.308;2023-04-29T16:25:41;8.13;;;2.65;;
38557;SDS011;24333;42.626;23.308;2023-04-29T16:28:16;9.13;;;3.20;;
38557;SDS011;24333;42.626;23.308;2023-04-29T16:30:43;10.32;;;3.55;;
38557;SDS011;24333;42.626;23.308;2023-04-29T16:33:08;6.80;;;3.08;;
38557;SDS011;24333;42.626;23.308;2023-04-29T16:35:34;8.70;;;2.85;;
38557;SDS011;24333;42.626;23.308;2023-04-29T16:38:00;5.35;;;2.78;;
38557;SDS011;24333;42.626;23.308;2023-04-29T16:43:51;5.30;;;2.75;;
38557;SDS011;24333;42.626;23.308;2023-04-29T16:46:20;5.18;;;2.90;;
38557;SDS011;24333;42.626;23.308;2023-04-29T16:48:45;11.63;;;3.00;;
38557;SDS011;24333;42.626;23.308;2023-04-29T16:51:11;9.60;;;3.22;;
38557;SDS011;24333;42.626;23.308;2023-04-29T16:53:36;8.43;;;2.90;;
38557;SDS011;24333;42.626;23.308;2023-04-29T16:56:02;5.85;;;2.97;;
38557;SDS011;24333;42.626;23.308;2023-04-29T16:58:36;7.38;;;3.88;;
38557;SDS011;24333;42.626;23.308;2023-04-29T17:01:02;7.63;;;3.63;;
38557;SDS011;24333;42.626;23.308;2023-04-29T17:03:28;9.30;;;3.80;;
38557;SDS011;24333;42.626;23.308;2023-04-29T17:05:54;9.95;;;4.50;;
38557;SDS011;24333;42.626;23.308;2023-04-29T18:20:14;8.48;;;4.88;;
38557;SDS011;24333;42.626;23.308;2023-04-29T18:22:39;13.05;;;5.20;;
38557;SDS011;24333;42.626;23.308;2023-04-29T18:25:05;11.18;;;5.43;;
38557;SDS011;24333;42.626;23.308;2023-04-29T18:27:31;8.10;;;4.10;;
38557;SDS011;24333;42.626;23.308;2023-04-29T18:29:56;7.90;;;4.05;;
38557;SDS011;24333;42.626;23.308;2023-04-29T18:39:06;6.18;;;3.50;;
38557;SDS011;24333;42.626;23.308;2023-04-29T18:41:31;8.10;;;3.45;;
38557;SDS011;24333;42.626;23.308;2023-04-29T18:43:57;6.70;;;3.20;;
38557;SDS011;24333;42.626;23.308;2023-04-29T18:46:23;5.93;;;3.15;;
38557;SDS011;24333;42.626;23.308;2023-04-29T18:48:48;5.47;;;2.67;;
38557;SDS011;24333;42.626;23.308;2023-04-29T18:51:14;8.38;;;2.63;;
38557;SDS011;24333;42.626;23.308;2023-04-29T20:08:42;10.45;;;4.10;;
38557;SDS011;24333;42.626;23.308;2023-04-29T20:11:08;11.57;;;6.40;;
38557;SDS011;24333;42.626;23.308;2023-04-29T20:13:35;9.20;;;4.70;;
38557;SDS011;24333;42.626;23.308;2023-04-29T20:16:04;8.13;;;4.43;;
38557;SDS011;24333;42.626;23.308;2023-04-29T20:18:30;13.85;;;6.03;;
38557;SDS011;24333;42.626;23.308;2023-04-29T22:38:59;8.73;;;3.72;;
38557;SDS011;24333;42.626;23.308;2023-04-29T22:41:25;8.82;;;3.90;;
38557;SDS011;24333;42.626;23.308;2023-04-29T22:43:51;5.43;;;2.88;;
38557;SDS011;24333;42.626;23.308;2023-04-29T22:46:21;20.63;;;7.00;;
38557;SDS011;24333;42.626;23.308;2023-04-29T22:48:47;7.60;;;3.40;;
38557;SDS011;24333;42.626;23.308;2023-04-29T22:51:13;11.05;;;4.20;;
38557;SDS011;24333;42.626;23.308;2023-04-29T22:56:27;7.18;;;3.20;;
38557;SDS011;24333;42.626;23.308;2023-04-29T22:58:53;5.30;;;2.85;;
38557;SDS011;24333;42.626;23.308;2023-04-29T23:01:19;4.68;;;3.00;;
38557;SDS011;24333;42.626;23.308;2023-04-29T23:25:55;6.40;;;3.33;;
38557;SDS011;24333;42.626;23.308;2023-04-29T23:28:21;7.57;;;2.78;;
38557;SDS011;24333;42.626;23.308;2023-04-29T23:30:48;7.07;;;3.20;;
38557;SDS011;24333;42.626;23.308;2023-04-29T23:39:54;8.23;;;4.32;;
38557;SDS011;24333;42.626;23.308;2023-04-29T23:42:22;6.50;;;2.65;;
38557;SDS011;24333;42.626;23.308;2023-04-29T23:44:48;7.80;;;3.90;;
38557;SDS011;24333;42.626;23.308;2023-04-29T23:47:14;6.10;;;2.65;;
38557;SDS011;24333;42.626;23.308;2023-04-29T23:49:39;6.53;;;4.00;;
38557;SDS011;24333;42.626;23.308;2023-04-29T23:52:05;9.95;;;3.60;;
38557;SDS011;24333;42.626;23.308;2023-04-29T23:57:07;6.50;;;3.03;;
38557;SDS011;24333;42.626;23.308;2023-04-29T23:59:33;6.20;;;3.20;;
